createdAt,value
2022-12-23T00:00:43.099Z,5.29
2022-12-23T00:04:14.092Z,5.34
2022-12-23T00:07:38.871Z,5.39
2022-12-23T00:11:02.834Z,5.45
2022-12-23T00:14:38.796Z,5.44
2022-12-23T00:17:46.324Z,5.38
2022-12-23T00:21:08.913Z,5.35
2022-12-23T00:24:29.833Z,5.20
2022-12-23T00:28:01.559Z,5.09
2022-12-23T00:31:15.116Z,5.10
2022-12-23T00:34:18.156Z,5.07
2022-12-23T00:37:22.307Z,5.35
2022-12-23T00:41:05.117Z,5.31
2022-12-23T00:44:41.013Z,5.46
2022-12-23T00:48:17.925Z,5.41
2022-12-23T00:51:29.297Z,5.47
2022-12-23T00:54:38.857Z,5.52
2022-12-23T00:58:02.898Z,5.41
2022-12-23T01:01:51.008Z,5.55
2022-12-23T01:05:19.762Z,5.59
2022-12-23T01:08:28.006Z,5.54
2022-12-23T01:11:44.079Z,5.49
2022-12-23T01:15:03.951Z,5.56
2022-12-23T01:18:24.025Z,5.59
2022-12-23T01:21:41.935Z,5.56
2022-12-23T01:25:13.009Z,5.59
2022-12-23T01:28:16.803Z,5.54
2022-12-23T01:31:25.773Z,5.60
2022-12-23T01:34:37.137Z,5.56
2022-12-23T01:37:47.598Z,5.66
2022-12-23T01:41:10.926Z,5.72
2022-12-23T01:45:01.004Z,5.76
2022-12-23T01:48:05.948Z,5.77
2022-12-23T01:51:23.582Z,5.72
2022-12-23T01:54:27.226Z,5.74
2022-12-23T01:57:46.979Z,5.59
2022-12-23T02:01:29.649Z,5.54
2022-12-23T02:04:45.951Z,5.67
2022-12-23T02:08:15.427Z,5.54
2022-12-23T02:11:49.842Z,5.49
2022-12-23T02:15:35.348Z,5.44
2022-12-23T02:19:16.872Z,5.45
2022-12-23T02:22:45.404Z,5.35
2022-12-23T02:26:05.332Z,5.30
2022-12-23T02:29:40.314Z,5.23
2022-12-23T02:33:34.795Z,5.24
2022-12-23T02:36:54.466Z,5.25
2022-12-23T02:40:36.651Z,5.17
2022-12-23T02:43:51.909Z,5.14
2022-12-23T02:47:00.783Z,5.14
2022-12-23T02:50:23.565Z,5.21
2022-12-23T02:53:47.470Z,5.13
2022-12-23T02:57:11.512Z,5.21
2022-12-23T03:00:33.523Z,5.13
2022-12-23T03:03:54.595Z,5.11
2022-12-23T03:07:18.347Z,5.08
2022-12-23T03:10:53.692Z,5.04
2022-12-23T03:14:40.279Z,5.12
2022-12-23T03:18:15.094Z,5.10
2022-12-23T03:22:00.562Z,5.09
2022-12-23T03:25:47.560Z,5.08
2022-12-23T03:29:53.544Z,5.11
2022-12-23T03:33:29.288Z,5.02
2022-12-23T03:36:50.117Z,4.90
2022-12-23T03:40:08.129Z,4.87
2022-12-23T03:43:31.258Z,5.02
2022-12-23T03:47:08.499Z,5.22
2022-12-23T03:50:20.104Z,5.20
2022-12-23T03:53:43.411Z,5.10
2022-12-23T03:57:04.313Z,5.11
2022-12-23T04:00:25.262Z,5.20
2022-12-23T04:03:50.329Z,5.11
2022-12-23T04:07:08.299Z,5.16
2022-12-23T04:10:25.610Z,4.90
2022-12-23T04:13:45.428Z,4.86
2022-12-23T04:17:08.582Z,5.03
2022-12-23T04:20:24.460Z,4.91
2022-12-23T04:23:28.106Z,4.59
2022-12-23T04:26:38.823Z,4.56
2022-12-23T04:29:45.017Z,4.67
2022-12-23T04:32:58.567Z,4.74
2022-12-23T04:36:05.904Z,4.79
2022-12-23T04:39:09.955Z,4.66
2022-12-23T04:42:25.545Z,4.76
2022-12-23T04:45:48.408Z,4.58
2022-12-23T04:49:06.037Z,4.74
2022-12-23T04:52:15.973Z,4.63
2022-12-23T04:55:41.310Z,4.49
2022-12-23T04:59:17.407Z,4.44
2022-12-23T05:02:40.604Z,4.43
2022-12-23T05:05:49.807Z,4.49
2022-12-23T05:09:05.385Z,4.57
2022-12-23T05:12:22.272Z,4.69
2022-12-23T05:15:27.436Z,4.64
2022-12-23T05:18:50.317Z,4.49
2022-12-23T05:22:13.841Z,4.50
2022-12-23T05:25:29.273Z,4.69
2022-12-23T05:28:32.598Z,4.56
2022-12-23T05:31:35.771Z,4.43
2022-12-23T05:34:51.410Z,4.19
2022-12-23T05:38:09.292Z,4.15
2022-12-23T05:41:35.307Z,4.16
2022-12-23T05:44:58.336Z,4.19
2022-12-23T05:48:19.313Z,4.42
2022-12-23T05:51:39.160Z,4.19
2022-12-23T05:54:55.283Z,4.30
2022-12-23T05:58:21.292Z,4.29
2022-12-23T06:01:46.275Z,4.39
2022-12-23T06:04:50.132Z,4.37
2022-12-23T06:07:57.304Z,4.27
2022-12-23T06:11:08.632Z,4.08
2022-12-23T06:14:17.669Z,4.07
2022-12-23T06:17:40.142Z,3.99
2022-12-23T06:21:08.687Z,4.01
2022-12-23T06:24:29.108Z,3.93
2022-12-23T06:27:52.309Z,3.90
2022-12-23T06:31:14.285Z,3.82
2022-12-23T06:34:31.764Z,3.80
2022-12-23T06:37:55.042Z,3.88
2022-12-23T06:41:27.755Z,3.88
2022-12-23T06:44:37.795Z,3.86
2022-12-23T06:48:01.083Z,3.77
2022-12-23T06:51:35.022Z,3.84
2022-12-23T06:54:48.937Z,3.70
2022-12-23T06:57:51.964Z,3.71
2022-12-23T07:00:56.765Z,3.73
2022-12-23T07:04:03.824Z,3.77
2022-12-23T07:07:10.510Z,3.76
2022-12-23T07:10:14.881Z,3.75
2022-12-23T07:13:31.184Z,3.74
2022-12-23T07:16:54.835Z,3.76
2022-12-23T07:20:13.557Z,3.77
2022-12-23T07:23:30.928Z,3.86
2022-12-23T07:27:00.966Z,3.84
2022-12-23T07:30:23.906Z,4.22
2022-12-23T07:33:46.978Z,4.06
2022-12-23T07:36:50.132Z,4.03
2022-12-23T07:39:54.693Z,3.99
2022-12-23T07:43:06.469Z,3.93
2022-12-23T07:46:25.247Z,4.07
2022-12-23T07:49:44.510Z,3.83
2022-12-23T07:53:11.539Z,4.01
2022-12-23T07:56:31.483Z,3.87
2022-12-23T07:59:47.267Z,3.74
2022-12-23T08:03:09.937Z,3.76
2022-12-23T08:06:41.485Z,3.81
2022-12-23T08:09:58.099Z,3.88
2022-12-23T08:13:18.840Z,4.06
2022-12-23T08:16:45.426Z,4.20
2022-12-23T08:20:07.786Z,4.27
2022-12-23T08:23:34.500Z,4.16
2022-12-23T08:26:44.388Z,4.11
2022-12-23T08:29:47.601Z,4.33
2022-12-23T08:32:51.548Z,3.93
2022-12-23T08:35:58.376Z,3.92
2022-12-23T08:39:05.847Z,3.99
2022-12-23T08:42:13.333Z,4.05
2022-12-23T08:45:27.652Z,3.93
2022-12-23T08:48:40.510Z,3.98
2022-12-23T08:51:59.819Z,3.95
2022-12-23T08:55:03.478Z,3.90
2022-12-23T08:58:10.121Z,3.86
2022-12-23T09:01:19.412Z,3.89
2022-12-23T09:04:32.877Z,3.89
2022-12-23T09:07:40.049Z,4.08
2022-12-23T09:10:45.077Z,3.96
2022-12-23T09:14:08.763Z,4.00
2022-12-23T09:17:29.551Z,4.18
2022-12-23T09:20:53.671Z,4.22
2022-12-23T09:24:16.434Z,4.24
2022-12-23T09:27:20.049Z,4.22
2022-12-23T09:30:24.960Z,4.13
2022-12-23T09:33:34.206Z,4.31
2022-12-23T09:36:55.645Z,4.17
2022-12-23T09:40:13.960Z,4.26
2022-12-23T09:43:58.464Z,4.19
2022-12-23T09:47:08.026Z,4.22
2022-12-23T09:50:23.767Z,4.05
2022-12-23T09:53:50.822Z,4.14
2022-12-23T09:58:01.292Z,4.08
2022-12-23T10:02:05.843Z,4.15
2022-12-23T10:05:48.423Z,4.06
2022-12-23T10:09:05.351Z,3.60
2022-12-23T10:12:29.586Z,3.62
2022-12-23T10:15:58.009Z,3.87
2022-12-23T10:19:48.574Z,3.68
2022-12-23T10:23:16.830Z,3.73
2022-12-23T10:26:38.683Z,3.78
2022-12-23T10:30:19.879Z,3.89
2022-12-23T10:34:05.950Z,3.91
2022-12-23T10:37:40.085Z,4.14
2022-12-23T10:41:07.068Z,4.09
2022-12-23T10:44:41.471Z,3.98
2022-12-23T10:48:05.107Z,4.19
2022-12-23T10:51:24.462Z,3.90
2022-12-23T10:54:37.012Z,3.97
2022-12-23T10:57:53.531Z,4.03
2022-12-23T11:01:22.057Z,3.92
2022-12-23T11:04:38.368Z,4.02
2022-12-23T11:07:48.192Z,4.04
2022-12-23T11:11:13.333Z,4.10
2022-12-23T11:14:51.403Z,4.08
2022-12-23T11:18:17.683Z,4.26
2022-12-23T11:21:30.334Z,4.25
2022-12-23T11:24:52.154Z,4.51
2022-12-23T11:28:25.347Z,4.50
2022-12-23T11:31:40.412Z,4.42
2022-12-23T11:35:01.301Z,4.35
2022-12-23T11:38:14.121Z,4.31
2022-12-23T11:41:28.541Z,4.06
2022-12-23T11:44:49.879Z,4.13
2022-12-23T11:48:12.243Z,4.12
2022-12-23T11:51:48.278Z,4.24
2022-12-23T11:55:15.204Z,4.35
2022-12-23T11:58:26.119Z,4.37
2022-12-23T12:01:44.296Z,4.43
2022-12-23T12:05:46.448Z,4.70
2022-12-23T12:08:56.479Z,4.81
2022-12-23T12:12:13.516Z,4.91
2022-12-23T12:15:35.473Z,4.77
2022-12-23T12:18:52.097Z,4.71
2022-12-23T12:22:15.261Z,4.66
2022-12-23T12:25:49.442Z,4.72
2022-12-23T12:29:30.945Z,4.72
2022-12-23T12:32:51.842Z,4.83
2022-12-23T12:36:30.165Z,4.95
2022-12-23T12:39:56.888Z,5.10
2022-12-23T12:43:34.039Z,5.04
2022-12-23T12:46:49.787Z,5.09
2022-12-23T12:50:08.698Z,5.19
2022-12-23T12:53:28.019Z,5.47
2022-12-23T12:56:38.505Z,5.45
2022-12-23T13:00:03.601Z,5.42
2022-12-23T13:03:34.745Z,5.31
2022-12-23T13:07:04.989Z,5.36
2022-12-23T13:10:34.089Z,5.36
2022-12-23T13:13:44.142Z,5.45
2022-12-23T13:17:14.963Z,5.56
2022-12-23T13:21:03.363Z,5.47
2022-12-23T13:24:44.036Z,5.56
2022-12-23T13:28:37.109Z,5.56
2022-12-23T13:32:55.188Z,5.41
2022-12-23T13:36:14.339Z,5.32
2022-12-23T13:39:27.354Z,5.32
2022-12-23T13:42:43.977Z,5.31
2022-12-23T13:45:55.141Z,5.24
2022-12-23T13:49:26.242Z,5.40
2022-12-23T13:52:41.646Z,5.40
2022-12-23T13:56:09.185Z,5.69
2022-12-23T13:59:17.043Z,5.83
2022-12-23T14:02:54.241Z,5.62
2022-12-23T14:05:57.231Z,5.73
2022-12-23T14:09:00.181Z,5.63
2022-12-23T14:12:35.886Z,5.75
2022-12-23T14:16:28.862Z,5.68
2022-12-23T14:19:47.474Z,5.50
2022-12-23T14:23:19.549Z,5.55
2022-12-23T14:26:49.034Z,5.60
2022-12-23T14:30:07.466Z,5.86
2022-12-23T14:33:18.498Z,5.86
2022-12-23T14:36:25.019Z,5.76
2022-12-23T14:39:34.418Z,5.88
2022-12-23T14:42:55.808Z,5.91
2022-12-23T14:46:07.357Z,5.85
2022-12-23T14:49:40.094Z,5.74
2022-12-23T14:53:03.916Z,5.62
2022-12-23T14:56:19.926Z,5.51
2022-12-23T14:59:52.179Z,5.71
2022-12-23T15:03:06.024Z,5.86
2022-12-23T15:06:15.261Z,5.86
2022-12-23T15:09:37.470Z,5.84
2022-12-23T15:12:46.741Z,5.83
2022-12-23T15:16:01.759Z,5.83
2022-12-23T15:19:25.766Z,5.83
2022-12-23T15:22:41.986Z,5.77
2022-12-23T15:25:57.669Z,5.85
2022-12-23T15:29:25.581Z,5.84
2022-12-23T15:32:48.637Z,5.86
2022-12-23T15:36:13.678Z,5.85
2022-12-23T15:39:36.910Z,5.83
2022-12-23T15:42:56.568Z,5.78
2022-12-23T15:46:29.252Z,5.81
2022-12-23T15:49:40.716Z,5.83
2022-12-23T15:52:54.631Z,5.85
2022-12-23T15:55:58.313Z,5.80
2022-12-23T15:59:34.611Z,5.86
2022-12-23T16:03:01.245Z,5.83
2022-12-23T16:06:24.436Z,5.77
2022-12-23T16:09:49.575Z,5.88
2022-12-23T16:13:17.589Z,5.93
2022-12-23T16:16:43.946Z,5.89
2022-12-23T16:20:02.596Z,5.93
2022-12-23T16:23:25.555Z,5.99
2022-12-23T16:26:48.684Z,5.92
2022-12-23T16:30:09.560Z,5.90
2022-12-23T16:33:38.816Z,6.00
2022-12-23T16:36:51.684Z,5.94
2022-12-23T16:40:09.549Z,5.84
2022-12-23T16:43:32.625Z,5.83
2022-12-23T16:46:56.612Z,5.80
2022-12-23T16:50:18.718Z,5.79
2022-12-23T16:53:38.502Z,5.83
2022-12-23T16:56:58.439Z,5.81
2022-12-23T17:00:19.616Z,5.73
2022-12-23T17:03:39.494Z,5.69
2022-12-23T17:06:46.854Z,5.51
2022-12-23T17:09:50.681Z,5.57
2022-12-23T17:13:12.227Z,5.52
2022-12-23T17:16:35.061Z,5.44
2022-12-23T17:19:55.150Z,5.41
2022-12-23T17:23:19.314Z,5.40
2022-12-23T17:26:40.226Z,5.45
2022-12-23T17:30:02.351Z,5.42
2022-12-23T17:33:26.197Z,5.47
2022-12-23T17:36:49.235Z,5.60
2022-12-23T17:39:59.843Z,5.48
2022-12-23T17:43:27.396Z,5.38
2022-12-23T17:46:41.144Z,5.46
2022-12-23T17:49:57.474Z,5.61
2022-12-23T17:53:01.562Z,5.67
2022-12-23T17:56:16.894Z,5.64
2022-12-23T17:59:32.278Z,5.64
2022-12-23T18:02:39.274Z,5.64
2022-12-23T18:05:45.862Z,5.58
2022-12-23T18:08:50.126Z,5.48
2022-12-23T18:12:13.327Z,5.61
2022-12-23T18:15:34.296Z,5.63
2022-12-23T18:18:45.898Z,5.63
2022-12-23T18:21:51.356Z,5.65
2022-12-23T18:24:59.108Z,5.68
2022-12-23T18:28:11.049Z,5.72
2022-12-23T18:31:29.604Z,5.65
2022-12-23T18:34:45.307Z,5.62
2022-12-23T18:38:08.174Z,5.66
2022-12-23T18:41:30.733Z,5.53
2022-12-23T18:44:34.657Z,5.69
2022-12-23T18:47:40.837Z,5.77
2022-12-23T18:50:57.152Z,5.68
2022-12-23T18:54:16.356Z,5.70
2022-12-23T18:57:19.545Z,5.71
2022-12-23T19:00:27.066Z,5.66
2022-12-23T19:03:40.808Z,5.75
2022-12-23T19:07:01.727Z,5.75
2022-12-23T19:10:26.819Z,5.62
2022-12-23T19:13:36.669Z,5.64
2022-12-23T19:16:59.103Z,5.51
2022-12-23T19:20:27.180Z,5.42
2022-12-23T19:23:44.064Z,5.40
2022-12-23T19:27:01.973Z,5.36
2022-12-23T19:30:07.600Z,5.46
2022-12-23T19:33:13.347Z,5.53
2022-12-23T19:36:25.228Z,5.52
2022-12-23T19:39:31.593Z,5.61
2022-12-23T19:42:38.118Z,5.52
2022-12-23T19:46:08.086Z,5.54
2022-12-23T19:49:19.933Z,5.66
2022-12-23T19:52:40.937Z,5.61
2022-12-23T19:56:06.019Z,5.57
2022-12-23T19:59:15.764Z,5.45
2022-12-23T20:02:39.106Z,5.57
2022-12-23T20:05:59.051Z,5.63
2022-12-23T20:09:19.962Z,5.56
2022-12-23T20:12:40.047Z,5.36
2022-12-23T20:16:04.012Z,5.31
2022-12-23T20:19:34.055Z,5.37
2022-12-23T20:22:55.894Z,5.50
2022-12-23T20:26:05.831Z,5.63
2022-12-23T20:29:15.591Z,5.63
2022-12-23T20:32:32.086Z,5.66
2022-12-23T20:35:36.556Z,5.73
2022-12-23T20:38:59.869Z,5.71
2022-12-23T20:42:23.484Z,5.79
2022-12-23T20:45:46.001Z,5.82
2022-12-23T20:48:55.489Z,5.72
2022-12-23T20:51:58.373Z,5.69
2022-12-23T20:55:05.133Z,5.64
2022-12-23T20:58:45.855Z,5.72
2022-12-23T21:01:59.100Z,5.69
2022-12-23T21:05:02.410Z,5.62
2022-12-23T21:08:22.029Z,5.62
2022-12-23T21:11:45.814Z,5.65
2022-12-23T21:15:05.918Z,5.67
2022-12-23T21:18:29.787Z,5.73
2022-12-23T21:21:49.825Z,5.64
2022-12-23T21:25:09.784Z,5.45
2022-12-23T21:28:29.754Z,5.45
2022-12-23T21:31:47.969Z,5.54
2022-12-23T21:34:54.906Z,5.45
2022-12-23T21:38:05.063Z,5.49
2022-12-23T21:41:23.484Z,5.37
2022-12-23T21:44:39.833Z,5.35
2022-12-23T21:47:53.319Z,5.26
2022-12-23T21:51:08.140Z,5.29
2022-12-23T21:54:18.285Z,5.33
2022-12-23T21:57:28.158Z,5.24
2022-12-23T22:00:36.277Z,5.34
2022-12-23T22:03:39.801Z,5.31
2022-12-23T22:06:47.028Z,5.42
2022-12-23T22:10:02.740Z,5.66
2022-12-23T22:13:24.626Z,5.55
2022-12-23T22:16:35.534Z,5.58
2022-12-23T22:19:58.680Z,5.36
2022-12-23T22:23:30.592Z,5.16
2022-12-23T22:26:54.569Z,5.29
2022-12-23T22:30:10.789Z,5.37
2022-12-23T22:33:38.541Z,5.40
2022-12-23T22:37:01.558Z,5.40
2022-12-23T22:40:23.532Z,5.38
2022-12-23T22:43:26.808Z,5.36
2022-12-23T22:46:31.249Z,5.36
2022-12-23T22:49:41.284Z,5.40
2022-12-23T22:53:04.620Z,5.38
2022-12-23T22:56:16.131Z,5.41
2022-12-23T22:59:31.644Z,5.41
2022-12-23T23:02:38.069Z,5.33
2022-12-23T23:05:43.140Z,5.34
2022-12-23T23:09:04.654Z,5.49
2022-12-23T23:12:24.628Z,5.49
2022-12-23T23:15:47.628Z,5.51
2022-12-23T23:19:08.685Z,5.55
2022-12-23T23:22:30.572Z,5.34
2022-12-23T23:25:50.547Z,5.37
2022-12-23T23:29:10.626Z,5.38
2022-12-23T23:32:30.569Z,5.31
2022-12-23T23:35:50.415Z,5.29
2022-12-23T23:39:10.511Z,5.39
2022-12-23T23:42:18.028Z,5.44
2022-12-23T23:45:27.556Z,5.43
2022-12-23T23:48:42.404Z,5.45
2022-12-23T23:52:05.327Z,5.46
2022-12-23T23:55:27.295Z,5.44
2022-12-23T23:58:30.320Z,5.43
